Time;durP1;ratioP1;P1;durP2;ratioP2;P2;SDS_P1;SDS_P2;PMS_P1;PMS_P2;Temp;Humidity;BMP_temperature;BMP_pressure;BME280_temperature;BME280_humidity;BME280_pressure;Samples;Min_cycle;Max_cycle;Signal;HPM_P1;HPM_P2
2021/05/09 00:00:20;;;;;;;5.70;4.20;;;;;;;8.08;100.00;95717.84;1023879;28;20034;-49
2021/05/09 00:00:51;;;;;;;6.82;4.25;;;;;;;8.14;100.00;95709.63;1019981;29;20248;-49
2021/05/09 00:01:22;;;;;;;7.32;4.05;;;;;;;8.08;100.00;95713.44;1023811;29;20717;-48
2021/05/09 00:01:53;;;;;;;6.90;4.18;;;;;;;8.09;100.00;95720.34;1023825;28;20057;-47
2021/05/09 00:02:24;;;;;;;6.65;4.03;;;;;;;8.09;100.00;95712.53;1024990;28;20761;-48
2021/05/09 00:02:56;;;;;;;11.00;4.50;;;;;;;8.08;100.00;95718.66;1028096;28;20319;-50
2021/05/09 00:03:27;;;;;;;6.65;4.60;;;;;;;8.09;100.00;95714.28;1032004;28;20250;-49
2021/05/09 00:03:58;;;;;;;6.88;4.03;;;;;;;8.10;100.00;95718.59;1027773;28;20074;-48
2021/05/09 00:04:29;;;;;;;7.40;3.78;;;;;;;8.14;100.00;95707.84;1024011;28;20314;-48
2021/05/09 00:05:00;;;;;;;6.90;4.20;;;;;;;8.16;100.00;95707.75;1027996;28;20385;-49
2021/05/09 00:05:31;;;;;;;5.85;3.70;;;;;;;8.14;100.00;95704.41;1023996;29;20247;-49
2021/05/09 00:06:03;;;;;;;5.53;3.85;;;;;;;8.12;100.00;95704.50;1023799;28;20247;-48
2021/05/09 00:06:33;;;;;;;5.68;3.72;;;;;;;8.10;100.00;95708.97;1036080;28;20273;-50
2021/05/09 00:07:06;;;;;;;5.80;3.92;;;;;;;8.15;100.00;95703.47;1035992;28;20257;-49
2021/05/09 00:07:37;;;;;;;6.22;4.20;;;;;;;8.21;100.00;95707.47;1028070;28;20022;-49
2021/05/09 00:08:08;;;;;;;9.90;4.18;;;;;;;8.20;100.00;95706.59;1027919;28;20250;-49
2021/05/09 00:08:39;;;;;;;6.32;4.25;;;;;;;8.17;100.00;95705.03;1023986;28;20239;-48
2021/05/09 00:09:10;;;;;;;6.72;4.25;;;;;;;8.15;100.00;95706.09;1028027;28;20326;-48
2021/05/09 00:09:41;;;;;;;6.60;4.20;;;;;;;8.11;100.00;95702.84;1024040;28;20040;-48
2021/05/09 00:10:12;;;;;;;6.90;4.07;;;;;;;8.12;100.00;95708.88;1023825;28;20255;-50
2021/05/09 00:10:43;;;;;;;9.20;4.50;;;;;;;8.15;100.00;95700.88;1027836;28;20097;-48
2021/05/09 00:11:14;;;;;;;7.80;4.20;;;;;;;8.15;100.00;95703.47;1023874;29;20247;-49
2021/05/09 00:11:45;;;;;;;5.63;3.70;;;;;;;8.11;100.00;95704.63;1023949;28;20030;-49
2021/05/09 00:12:16;;;;;;;7.47;3.88;;;;;;;8.01;100.00;95685.25;1027712;28;20652;-48
2021/05/09 00:12:48;;;;;;;7.47;4.45;;;;;;;8.12;100.00;95701.88;1027887;28;20046;-49
2021/05/09 00:13:19;;;;;;;10.45;3.97;;;;;;;8.16;100.00;95699.91;1028023;28;20590;-49
2021/05/09 00:13:49;;;;;;;7.10;4.47;;;;;;;8.14;100.00;95700.00;1031826;28;20292;-49
2021/05/09 00:14:22;;;;;;;6.18;3.97;;;;;;;8.12;100.00;95699.25;1027886;28;20444;-49
2021/05/09 00:14:53;;;;;;;7.55;4.22;;;;;;;8.17;100.00;95701.59;1028047;28;20026;-48
2021/05/09 00:15:25;;;;;;;7.28;4.03;;;;;;;8.15;100.00;95700.88;1036054;28;20624;-48
2021/05/09 00:15:58;;;;;;;7.55;4.20;;;;;;;8.11;100.00;95707.22;1019941;29;20255;-50
2021/05/09 00:16:29;;;;;;;8.32;4.72;;;;;;;8.09;100.00;95699.50;1023813;28;20386;-48
2021/05/09 00:17:00;;;;;;;7.43;4.22;;;;;;;8.13;100.00;95693.13;1027860;28;20259;-48
2021/05/09 00:17:32;;;;;;;6.38;4.57;;;;;;;8.14;100.00;95693.97;1027965;28;20325;-48
2021/05/09 00:18:03;;;;;;;6.53;4.15;;;;;;;8.16;100.00;95706.00;1028043;28;20771;-48
2021/05/09 00:18:35;;;;;;;7.13;4.40;;;;;;;8.12;100.00;95699.25;1023950;29;20376;-50
2021/05/09 00:19:06;;;;;;;6.53;4.10;;;;;;;8.13;100.00;95695.75;1024016;29;20251;-49
2021/05/09 00:19:37;;;;;;;8.18;4.05;;;;;;;8.13;100.00;95702.75;1028175;28;20258;-48
2021/05/09 00:20:09;;;;;;;8.40;4.78;;;;;;;8.16;100.00;95695.56;1032562;28;20265;-47
2021/05/09 00:20:40;;;;;;;8.43;4.15;;;;;;;8.19;100.00;95697.13;1028155;28;20250;-50
2021/05/09 00:21:11;;;;;;;7.13;4.10;;;;;;;8.14;100.00;95693.97;1024499;29;20746;-49
2021/05/09 00:21:42;;;;;;;8.55;3.95;;;;;;;8.14;100.00;95696.56;1028349;28;20250;-50
2021/05/09 00:22:13;;;;;;;5.57;3.53;;;;;;;8.15;100.00;95693.88;1028533;28;20262;-49
2021/05/09 00:22:45;;;;;;;9.05;3.70;;;;;;;8.17;100.00;95694.59;1028203;28;20022;-52
2021/05/09 00:23:15;;;;;;;5.80;4.03;;;;;;;8.18;100.00;95691.06;1024198;28;20254;-48
2021/05/09 00:23:48;;;;;;;6.45;4.03;;;;;;;8.17;100.00;95696.38;1020488;28;20326;-50
2021/05/09 00:24:19;;;;;;;7.93;3.95;;;;;;;8.14;100.00;95696.56;1020464;29;20032;-47
2021/05/09 00:24:50;;;;;;;7.07;4.05;;;;;;;8.13;100.00;95698.34;1033536;28;20250;-50
2021/05/09 00:25:20;;;;;;;7.13;3.78;;;;;;;8.14;100.00;95694.78;1030610;28;20046;-52
2021/05/09 00:25:52;;;;;;;7.70;4.38;;;;;;;8.10;100.00;95697.72;1026437;28;20286;-52
2021/05/09 00:26:23;;;;;;;7.28;4.28;;;;;;;8.07;100.00;95690.94;1034365;28;20022;-51
2021/05/09 00:26:54;;;;;;;6.32;3.90;;;;;;;8.07;100.00;95693.53;1030035;28;20255;-51
2021/05/09 00:27:25;;;;;;;6.97;3.83;;;;;;;8.08;100.00;95691.75;1021957;29;20260;-49
2021/05/09 00:27:56;;;;;;;6.82;3.60;;;;;;;8.08;100.00;95689.16;1033943;28;20260;-49
2021/05/09 00:28:27;;;;;;;7.43;4.97;;;;;;;8.03;100.00;95688.59;1030325;28;20338;-50
2021/05/09 00:28:58;;;;;;;8.05;4.07;;;;;;;8.05;100.00;95689.31;1030117;28;20263;-50
2021/05/09 00:29:29;;;;;;;5.63;3.70;;;;;;;8.07;100.00;95692.69;1026557;29;20035;-51
2021/05/09 00:30:00;;;;;;;8.15;4.22;;;;;;;8.05;100.00;95689.31;1022517;29;20450;-51
2021/05/09 00:30:31;;;;;;;6.70;3.88;;;;;;;8.07;100.00;95690.06;1026535;29;20027;-48
2021/05/09 00:31:03;;;;;;;6.22;3.75;;;;;;;8.05;100.00;95692.78;1022198;29;20753;-49
2021/05/09 00:31:33;;;;;;;6.50;4.05;;;;;;;8.03;100.00;95694.63;1034393;28;20245;-50
2021/05/09 00:32:05;;;;;;;10.02;4.03;;;;;;;8.01;100.00;95691.28;1026527;29;20259;-49
2021/05/09 00:32:36;;;;;;;8.40;4.47;;;;;;;7.96;100.00;95699.44;1023849;29;20058;-49
2021/05/09 00:33:07;;;;;;;5.72;3.58;;;;;;;7.94;100.00;95696.09;1023710;28;20262;-51
2021/05/09 00:33:38;;;;;;;5.47;3.70;;;;;;;7.93;100.00;95693.56;1027806;28;20768;-49
2021/05/09 00:34:09;;;;;;;7.07;3.75;;;;;;;7.83;100.00;95679.44;1019853;29;20287;-46
2021/05/09 00:34:40;;;;;;;6.55;3.85;;;;;;;7.95;100.00;95695.13;1027874;28;20596;-48
2021/05/09 00:35:11;;;;;;;7.30;3.88;;;;;;;7.91;100.00;95695.44;1023710;28;20030;-49
2021/05/09 00:35:42;;;;;;;6.18;4.05;;;;;;;7.90;100.00;95696.38;1023815;28;20015;-47
2021/05/09 00:36:13;;;;;;;5.90;3.80;;;;;;;7.92;100.00;95699.72;1023930;28;20255;-51
2021/05/09 00:36:44;;;;;;;7.72;4.68;;;;;;;7.92;100.00;95697.97;1023814;29;20027;-49
2021/05/09 00:37:16;;;;;;;5.50;3.55;;;;;;;7.86;100.00;95695.72;1023703;29;20263;-49
2021/05/09 00:37:47;;;;;;;5.80;3.80;;;;;;;7.85;100.00;95693.22;1023876;28;20026;-48
2021/05/09 00:38:17;;;;;;;7.13;4.30;;;;;;;7.85;100.00;95698.44;1031872;28;20257;-49
2021/05/09 00:38:48;;;;;;;7.72;4.03;;;;;;;7.89;100.00;95698.16;1031808;28;20022;-48
2021/05/09 00:39:20;;;;;;;9.27;4.38;;;;;;;7.88;100.00;95696.50;1023690;28;20024;-51
2021/05/09 00:39:51;;;;;;;6.03;3.53;;;;;;;7.89;100.00;95692.09;1035891;28;20040;-48
2021/05/09 00:40:22;;;;;;;5.93;3.47;;;;;;;7.90;100.00;95691.16;1035905;28;20292;-49
2021/05/09 00:40:55;;;;;;;7.05;3.63;;;;;;;7.93;100.00;95678.75;1027738;28;20254;-49
2021/05/09 00:41:35;;;;;;;6.75;3.78;;;;;;;7.98;100.00;95692.34;1019674;29;20038;-50
2021/05/09 00:42:07;;;;;;;5.20;3.70;;;;;;;7.97;100.00;95693.25;1027744;28;20265;-49
2021/05/09 00:42:38;;;;;;;5.57;3.80;;;;;;;7.97;100.00;95684.59;1031451;28;20348;-48
2021/05/09 00:43:09;;;;;;;6.65;3.53;;;;;;;7.94;100.00;95683.03;1035555;28;20268;-47
2021/05/09 00:43:39;;;;;;;5.97;3.67;;;;;;;7.94;100.00;95690.88;1031528;28;20022;-49
2021/05/09 00:44:11;;;;;;;7.35;4.22;;;;;;;7.95;100.00;95692.53;1027782;28;20512;-47
2021/05/09 00:44:42;;;;;;;7.05;3.33;;;;;;;7.94;100.00;95688.25;1027895;28;20026;-48
2021/05/09 00:45:13;;;;;;;8.48;3.45;;;;;;;7.95;100.00;95683.88;1031728;28;20264;-48
2021/05/09 00:45:44;;;;;;;5.93;3.75;;;;;;;7.93;100.00;95689.19;1023708;28;20121;-49
2021/05/09 00:46:14;;;;;;;5.63;3.53;;;;;;;7.89;100.00;95690.31;1027842;28;20292;-48
2021/05/09 00:46:46;;;;;;;7.90;3.88;;;;;;;7.89;100.00;95686.88;1036053;28;20088;-48
2021/05/09 00:47:17;;;;;;;6.32;3.55;;;;;;;7.91;100.00;95688.44;1031904;28;20428;-48
2021/05/09 00:47:48;;;;;;;5.80;3.55;;;;;;;7.93;100.00;95689.19;1027731;28;20257;-48
2021/05/09 00:48:19;;;;;;;6.50;3.85;;;;;;;7.91;100.00;95685.84;1023780;28;20354;-48
2021/05/09 00:48:50;;;;;;;5.35;3.60;;;;;;;7.90;100.00;95673.75;1023820;28;20286;-49
2021/05/09 00:49:22;;;;;;;8.07;3.70;;;;;;;7.85;100.00;95696.66;1031717;28;20280;-48
2021/05/09 00:49:53;;;;;;;5.18;3.50;;;;;;;7.84;100.00;95687.16;1031743;28;20258;-48
2021/05/09 00:50:24;;;;;;;7.07;3.60;;;;;;;7.85;100.00;95685.41;1027747;28;20297;-51
2021/05/09 00:50:55;;;;;;;6.43;3.25;;;;;;;7.86;100.00;95674.84;1023763;29;20401;-49
2021/05/09 00:51:26;;;;;;;5.88;3.65;;;;;;;7.88;100.00;95679.97;1023783;29;20102;-48
2021/05/09 00:51:58;;;;;;;5.57;3.40;;;;;;;7.93;100.00;95677.91;1031636;28;20022;-47
2021/05/09 00:52:30;;;;;;;5.65;3.70;;;;;;;7.90;100.00;95681.56;1031756;28;20061;-49
2021/05/09 00:53:00;;;;;;;5.88;3.55;;;;;;;7.84;100.00;95681.13;1027675;28;20266;-49
2021/05/09 00:53:32;;;;;;;5.57;3.58;;;;;;;7.84;100.00;95681.94;1031617;28;20250;-47
2021/05/09 00:54:03;;;;;;;6.70;3.50;;;;;;;7.91;100.00;95677.19;1027561;28;20026;-49
2021/05/09 00:54:34;;;;;;;7.43;3.65;;;;;;;7.92;100.00;95678.84;1023781;28;20746;-50
2021/05/09 00:55:08;;;;;;;5.95;3.63;;;;;;;7.90;100.00;95684.19;1027693;28;20265;-48
2021/05/09 00:55:39;;;;;;;5.53;3.53;;;;;;;7.90;100.00;95678.09;1023764;29;20247;-48
2021/05/09 00:56:13;;;;;;;5.88;3.70;;;;;;;7.86;100.00;95674.84;1023628;28;20271;-49
2021/05/09 00:56:45;;;;;;;9.25;4.40;;;;;;;7.88;100.00;95677.38;1025649;28;20251;-49
2021/05/09 00:57:17;;;;;;;5.32;3.60;;;;;;;7.89;100.00;95673.84;1025419;28;20732;-48
2021/05/09 00:57:48;;;;;;;6.30;3.35;;;;;;;7.88;100.00;95679.97;1027761;28;20264;-49
2021/05/09 00:58:19;;;;;;;5.72;3.50;;;;;;;7.84;100.00;95676.72;1027795;28;20798;-45
2021/05/09 00:58:50;;;;;;;5.43;3.50;;;;;;;7.86;100.00;95676.63;1027711;28;20258;-49
2021/05/09 00:59:21;;;;;;;7.63;3.60;;;;;;;7.88;100.00;95673.00;1023745;29;20286;-48
2021/05/09 00:59:53;;;;;;;5.45;3.33;;;;;;;7.87;100.00;95668.72;1027622;28;20385;-51
2021/05/09 01:00:24;;;;;;;6.20;3.25;;;;;;;7.81;100.00;95674.34;1027799;28;20042;-49
2021/05/09 01:00:55;;;;;;;5.85;3.05;;;;;;;7.80;100.00;95670.03;1023676;28;20318;-49
2021/05/09 01:01:26;;;;;;;6.57;3.40;;;;;;;7.82;100.00;95680.38;1031664;28;20274;-49
2021/05/09 01:01:58;;;;;;;5.78;3.78;;;;;;;7.83;100.00;95677.69;1023800;29;20254;-48
2021/05/09 01:02:29;;;;;;;4.47;3.00;;;;;;;7.84;100.00;95676.72;1031388;28;20030;-51
2021/05/09 01:03:02;;;;;;;4.90;3.42;;;;;;;7.79;100.00;95677.03;1031681;28;20713;-48
2021/05/09 01:03:33;;;;;;;5.18;3.75;;;;;;;7.81;100.00;95676.94;1023531;29;20282;-49
2021/05/09 01:04:05;;;;;;;5.97;3.75;;;;;;;7.82;100.00;95670.78;1023600;29;20251;-50
2021/05/09 01:04:36;;;;;;;5.03;3.60;;;;;;;7.77;100.00;95678.03;1023802;28;20461;-48
2021/05/09 01:05:07;;;;;;;5.53;3.20;;;;;;;7.72;100.00;95664.47;1023567;29;20255;-47
2021/05/09 01:05:38;;;;;;;4.55;3.20;;;;;;;7.74;100.00;95673.03;1023693;29;20251;-50
2021/05/09 01:06:10;;;;;;;6.93;3.28;;;;;;;7.73;100.00;95672.22;1023735;28;20247;-47
2021/05/09 01:06:41;;;;;;;5.03;3.25;;;;;;;7.72;100.00;95674.91;1027711;28;20262;-49
2021/05/09 01:07:13;;;;;;;6.15;3.47;;;;;;;7.77;100.00;95676.28;1035699;28;20241;-49
2021/05/09 01:07:44;;;;;;;4.70;3.08;;;;;;;7.71;100.00;95671.44;1035791;28;20318;-47
2021/05/09 01:08:16;;;;;;;5.28;3.33;;;;;;;7.74;100.00;95678.25;1023788;28;20262;-48
2021/05/09 01:08:47;;;;;;;6.35;3.20;;;;;;;7.72;100.00;95677.53;1027703;28;20637;-48
2021/05/09 01:09:18;;;;;;;4.60;3.30;;;;;;;7.73;100.00;95672.22;1027709;28;20637;-47
2021/05/09 01:09:49;;;;;;;7.53;3.03;;;;;;;7.76;100.00;95677.22;1023767;28;20282;-48
2021/05/09 01:10:21;;;;;;;4.82;3.08;;;;;;;7.76;100.00;95676.38;1019702;29;20645;-49
2021/05/09 01:10:52;;;;;;;4.97;3.22;;;;;;;7.82;100.00;95676.00;1023622;29;20012;-49
2021/05/09 01:11:23;;;;;;;5.18;3.30;;;;;;;7.78;100.00;95667.53;1023524;29;20843;-50
2021/05/09 01:11:54;;;;;;;4.78;3.08;;;;;;;7.79;100.00;95671.00;1023726;29;20262;-47
2021/05/09 01:12:25;;;;;;;4.35;2.88;;;;;;;7.81;100.00;95676.09;1027664;28;20704;-50
2021/05/09 01:12:56;;;;;;;5.75;3.33;;;;;;;7.79;100.00;95679.63;1031742;28;20014;-48
2021/05/09 01:13:27;;;;;;;4.68;3.05;;;;;;;7.79;100.00;95681.41;1031463;28;20326;-49
2021/05/09 01:13:58;;;;;;;7.35;3.97;;;;;;;7.77;100.00;95675.44;1027568;28;20262;-47
2021/05/09 01:14:29;;;;;;;4.88;3.00;;;;;;;7.77;100.00;95680.66;1023712;29;20263;-49
2021/05/09 01:15:02;;;;;;;5.60;3.15;;;;;;;7.71;100.00;95673.22;1031685;28;20481;-49
2021/05/09 01:15:34;;;;;;;6.68;2.80;;;;;;;7.69;100.00;95673.31;1031578;28;20783;-48
2021/05/09 01:16:05;;;;;;;5.28;2.80;;;;;;;7.69;100.00;95670.72;1019760;28;20766;-49
2021/05/09 01:16:36;;;;;;;4.72;2.80;;;;;;;7.70;100.00;95675.00;1023662;29;20262;-48
2021/05/09 01:17:07;;;;;;;4.40;2.70;;;;;;;7.74;100.00;95676.47;1023637;28;20263;-48
2021/05/09 01:17:38;;;;;;;5.40;2.70;;;;;;;7.72;100.00;95670.53;1027546;28;20107;-50
2021/05/09 01:18:09;;;;;;;4.68;2.90;;;;;;;7.72;100.00;95678.34;1023719;28;20020;-47
2021/05/09 01:18:40;;;;;;;4.95;2.70;;;;;;;7.73;100.00;95674.81;1023690;28;20271;-48
2021/05/09 01:19:11;;;;;;;4.22;2.58;;;;;;;7.76;100.00;95673.78;1023655;28;20602;-49
2021/05/09 01:19:43;;;;;;;4.13;2.50;;;;;;;7.76;100.00;95676.38;1023430;29;20011;-50
2021/05/09 01:20:32;;;;;;;5.80;3.05;;;;;;;7.69;100.00;95670.72;1019746;29;20607;-47
2021/05/09 01:21:04;;;;;;;4.07;2.55;;;;;;;7.76;100.00;95673.78;1023656;28;20031;-49
2021/05/09 01:21:35;;;;;;;5.18;3.08;;;;;;;7.73;100.00;95679.19;1031546;28;20040;-49
2021/05/09 01:22:06;;;;;;;5.30;2.72;;;;;;;7.71;100.00;95676.66;1019694;29;20264;-48
2021/05/09 01:22:38;;;;;;;4.22;2.67;;;;;;;7.68;100.00;95678.66;1023597;29;20390;-50
2021/05/09 01:23:09;;;;;;;5.35;2.78;;;;;;;7.66;100.00;95675.28;1027521;28;20772;-46
2021/05/09 01:23:40;;;;;;;4.07;2.70;;;;;;;7.63;100.00;95675.50;1023386;29;20270;-48
2021/05/09 01:24:11;;;;;;;5.80;2.50;;;;;;;7.62;100.00;95679.88;1023699;28;20261;-47
2021/05/09 01:24:42;;;;;;;4.93;2.55;;;;;;;7.63;100.00;95675.50;1019570;29;20175;-49
2021/05/09 01:25:13;;;;;;;4.40;2.67;;;;;;;7.67;100.00;95679.56;1019702;29;20032;-49
2021/05/09 01:25:44;;;;;;;4.28;2.78;;;;;;;7.62;100.00;95676.41;1023548;28;20019;-50
2021/05/09 01:26:15;;;;;;;5.22;3.10;;;;;;;7.57;100.00;95672.34;1023700;29;20317;-50
2021/05/09 01:26:46;;;;;;;5.28;2.65;;;;;;;7.59;100.00;95675.69;1027646;28;20281;-47
2021/05/09 01:27:17;;;;;;;6.97;2.80;;;;;;;7.58;100.00;95667.94;1023613;29;20070;-50
2021/05/09 01:27:48;;;;;;;5.25;2.78;;;;;;;7.58;100.00;95668.81;1023528;28;20477;-48
2021/05/09 01:28:19;;;;;;;5.35;2.47;;;;;;;7.63;100.00;95665.06;1023718;28;20123;-48
2021/05/09 01:28:50;;;;;;;6.35;2.90;;;;;;;7.61;100.00;95672.16;1031628;28;20141;-48
2021/05/09 01:29:21;;;;;;;6.28;2.53;;;;;;;7.62;100.00;95668.59;1023655;28;20563;-49
2021/05/09 01:29:52;;;;;;;3.50;2.40;;;;;;;7.62;100.00;95668.59;1019679;29;20255;-51
2021/05/09 01:30:23;;;;;;;5.53;3.65;;;;;;;7.62;100.00;95669.44;1027636;28;20400;-49
2021/05/09 01:30:54;;;;;;;4.63;2.80;;;;;;;7.61;100.00;95666.94;1019647;29;20090;-48
2021/05/09 01:31:25;;;;;;;5.55;2.85;;;;;;;7.57;100.00;95669.72;1027606;28;20262;-49
2021/05/09 01:31:57;;;;;;;4.00;2.42;;;;;;;7.59;100.00;95665.25;1019589;29;20291;-48
2021/05/09 01:32:28;;;;;;;7.57;2.85;;;;;;;7.60;100.00;95668.69;1031597;28;20782;-50
2021/05/09 01:32:59;;;;;;;4.55;2.85;;;;;;;7.61;100.00;95669.53;1023708;29;20346;-48
2021/05/09 01:33:29;;;;;;;5.70;2.70;;;;;;;7.62;100.00;95669.44;1027534;28;20437;-49
2021/05/09 01:34:00;;;;;;;4.53;2.90;;;;;;;7.58;100.00;95666.19;1027382;28;20027;-50
2021/05/09 01:34:38;;;;;;;4.55;2.83;;;;;;;7.56;100.00;95662.00;1019740;29;20100;-49
2021/05/09 01:35:10;;;;;;;4.80;3.30;;;;;;;7.54;100.00;95662.09;1027603;28;20262;-49
2021/05/09 01:35:41;;;;;;;4.35;2.55;;;;;;;7.51;100.00;95658.88;1027811;28;20321;-48
2021/05/09 01:36:12;;;;;;;5.15;3.20;;;;;;;7.49;100.00;95660.69;1027588;28;20254;-49
2021/05/09 01:36:43;;;;;;;5.03;2.78;;;;;;;7.52;100.00;95663.94;1023813;29;20031;-49
2021/05/09 01:37:14;;;;;;;3.90;2.22;;;;;;;7.48;100.00;95662.47;1027590;28;20018;-47
2021/05/09 01:37:45;;;;;;;5.25;2.80;;;;;;;7.50;100.00;95660.59;1027703;28;20042;-49
2021/05/09 01:38:16;;;;;;;4.30;2.83;;;;;;;7.49;100.00;95653.75;1023518;29;20015;-49
2021/05/09 01:38:47;;;;;;;5.32;2.72;;;;;;;7.39;100.00;95650.03;1027681;28;20668;-49
2021/05/09 01:39:18;;;;;;;4.45;2.38;;;;;;;7.42;100.00;95655.06;1035680;28;20271;-49
2021/05/09 01:39:49;;;;;;;4.82;2.80;;;;;;;7.42;100.00;95656.81;1031644;28;20515;-50
2021/05/09 01:40:21;;;;;;;5.60;2.70;;;;;;;7.41;100.00;95655.97;1023526;29;20494;-49
2021/05/09 01:40:52;;;;;;;4.57;2.83;;;;;;;7.36;100.00;95663.25;1027591;28;20255;-50
2021/05/09 01:41:23;;;;;;;4.13;2.28;;;;;;;7.35;100.00;95654.59;1031603;28;20266;-50
2021/05/09 01:41:54;;;;;;;4.15;2.55;;;;;;;7.37;100.00;95659.69;1027707;28;20254;-48
2021/05/09 01:42:25;;;;;;;4.57;2.70;;;;;;;7.36;100.00;95658.06;1019531;29;20024;-48
2021/05/09 01:42:56;;;;;;;5.72;2.92;;;;;;;7.35;100.00;95662.41;1023651;29;20240;-48
2021/05/09 01:43:27;;;;;;;5.82;2.80;;;;;;;7.38;100.00;95656.19;1019668;29;20267;-49
2021/05/09 01:43:58;;;;;;;6.53;2.72;;;;;;;7.48;100.00;95656.44;1027531;28;20941;-49
2021/05/09 01:44:29;;;;;;;4.13;2.70;;;;;;;7.52;100.00;95650.09;1027490;28;20318;-48
2021/05/09 01:45:00;;;;;;;4.32;2.72;;;;;;;7.49;100.00;95658.09;1027705;28;20409;-49
2021/05/09 01:45:31;;;;;;;5.28;3.35;;;;;;;7.49;100.00;95655.50;1023645;29;20111;-48
2021/05/09 01:46:03;;;;;;;4.20;2.50;;;;;;;7.47;100.00;95655.59;1023697;28;20379;-48
2021/05/09 01:46:34;;;;;;;4.90;2.58;;;;;;;7.46;100.00;95659.13;1019527;29;20023;-51
2021/05/09 01:47:04;;;;;;;6.18;2.65;;;;;;;7.46;100.00;95661.75;1023569;29;20260;-49
2021/05/09 01:47:36;;;;;;;5.20;2.70;;;;;;;7.45;100.00;95656.63;1027622;28;20018;-48
2021/05/09 01:48:08;;;;;;;4.20;2.83;;;;;;;7.43;100.00;95654.09;1023660;29;20027;-49
2021/05/09 01:48:39;;;;;;;3.75;2.50;;;;;;;7.41;100.00;95653.38;1031438;28;20608;-49
2021/05/09 01:49:10;;;;;;;4.45;2.50;;;;;;;7.42;100.00;95656.81;1027586;28;20325;-46
2021/05/09 01:49:41;;;;;;;4.30;2.53;;;;;;;7.40;100.00;95654.31;1027579;28;20254;-48
2021/05/09 01:50:14;;;;;;;4.13;2.75;;;;;;;7.37;100.00;95651.88;1019693;29;20294;-50
2021/05/09 01:50:45;;;;;;;4.43;3.00;;;;;;;7.34;100.00;95662.53;1023443;29;20250;-50
2021/05/09 01:51:17;;;;;;;4.85;2.72;;;;;;;7.31;100.00;95650.50;1023621;28;20267;-48
2021/05/09 01:51:49;;;;;;;4.82;2.92;;;;;;;7.33;100.00;95658.22;1023687;29;20329;-50
2021/05/09 01:52:20;;;;;;;7.65;2.80;;;;;;;7.32;100.00;95651.31;1023598;28;20290;-48
2021/05/09 01:52:51;;;;;;;5.35;2.60;;;;;;;7.30;100.00;95656.66;1035528;28;20344;-50
2021/05/09 01:53:22;;;;;;;6.28;2.85;;;;;;;7.17;100.00;95627.06;1035641;28;20030;-49
2021/05/09 01:53:53;;;;;;;4.63;2.40;;;;;;;7.34;100.00;95652.94;1027387;28;20270;-49
2021/05/09 01:54:24;;;;;;;4.57;2.83;;;;;;;7.32;100.00;95665.22;1028132;28;20555;-49
2021/05/09 01:54:55;;;;;;;4.78;2.63;;;;;;;7.30;100.00;95654.06;1023427;29;20255;-49
2021/05/09 01:55:27;;;;;;;5.53;3.03;;;;;;;7.34;100.00;95654.69;1023742;29;20330;-49
2021/05/09 01:55:58;;;;;;;4.32;2.70;;;;;;;7.35;100.00;95654.59;1023576;29;20313;-48
2021/05/09 01:56:29;;;;;;;4.65;2.83;;;;;;;7.37;100.00;95654.50;1023711;28;20673;-48
2021/05/09 01:57:00;;;;;;;5.25;2.60;;;;;;;7.39;100.00;95650.03;1031551;28;20404;-49
2021/05/09 01:57:31;;;;;;;7.80;2.80;;;;;;;7.35;100.00;95651.16;1027651;28;20251;-49
2021/05/09 01:58:02;;;;;;;4.25;2.85;;;;;;;7.30;100.00;95651.44;1031650;28;20026;-48
2021/05/09 01:58:33;;;;;;;4.93;2.78;;;;;;;7.31;100.00;95649.66;1027562;28;20250;-49
2021/05/09 01:59:04;;;;;;;4.15;2.45;;;;;;;7.31;100.00;95650.50;1035516;28;20264;-48
2021/05/09 01:59:36;;;;;;;4.38;2.70;;;;;;;7.32;100.00;95660.00;1023579;28;20692;-47
2021/05/09 02:00:11;;;;;;;4.88;3.00;;;;;;;7.38;100.00;95646.59;1023558;29;20795;-48
2021/05/09 02:00:42;;;;;;;4.88;2.88;;;;;;;7.37;100.00;95650.09;1023812;29;20290;-48
2021/05/09 02:01:13;;;;;;;4.43;2.70;;;;;;;7.33;100.00;95647.81;1027545;28;20606;-49
2021/05/09 02:01:43;;;;;;;5.18;2.50;;;;;;;7.31;100.00;95642.69;1023472;29;20294;-49
2021/05/09 02:02:15;;;;;;;4.50;2.88;;;;;;;7.28;100.00;95644.63;1019336;29;20031;-50
2021/05/09 02:02:47;;;;;;;5.55;3.05;;;;;;;7.23;100.00;95636.28;1023579;29;20082;-49
2021/05/09 02:03:18;;;;;;;4.80;2.70;;;;;;;7.20;100.00;95642.50;1023388;29;20257;-49
2021/05/09 02:03:49;;;;;;;4.93;2.85;;;;;;;7.16;100.00;95647.06;1023464;29;20800;-49
2021/05/09 02:04:20;;;;;;;7.50;3.38;;;;;;;7.20;100.00;95642.50;1023616;29;20330;-48
2021/05/09 02:04:52;;;;;;;5.53;2.70;;;;;;;7.23;100.00;95642.34;1023485;29;20742;-48
2021/05/09 02:05:23;;;;;;;4.53;2.17;;;;;;;7.18;100.00;95647.81;1023498;28;20024;-50
2021/05/09 02:05:55;;;;;;;4.75;2.88;;;;;;;7.15;100.00;95640.19;1023598;29;20247;-48
2021/05/09 02:06:25;;;;;;;4.05;2.50;;;;;;;7.12;100.00;95643.00;1031475;28;20613;-48
2021/05/09 02:06:56;;;;;;;4.50;2.88;;;;;;;7.10;100.00;95649.22;1031474;28;20262;-49
2021/05/09 02:07:27;;;;;;;4.93;2.70;;;;;;;7.12;100.00;95645.59;1023504;28;20118;-48
2021/05/09 02:07:58;;;;;;;4.05;2.60;;;;;;;7.07;100.00;95631.19;1023547;29;20137;-49
2021/05/09 02:08:29;;;;;;;5.70;2.67;;;;;;;7.13;100.00;95636.84;1027502;28;20113;-51
2021/05/09 02:09:00;;;;;;;4.25;2.80;;;;;;;7.16;100.00;95636.66;1027593;28;20648;-51
2021/05/09 02:09:31;;;;;;;5.63;2.78;;;;;;;7.19;100.00;95633.03;1023387;29;20273;-51
2021/05/09 02:10:05;;;;;;;5.72;2.55;;;;;;;7.22;100.00;95645.84;1023528;28;20242;-51
2021/05/09 02:10:36;;;;;;;7.25;2.63;;;;;;;7.18;100.00;95641.78;1027535;28;20046;-51
2021/05/09 02:11:07;;;;;;;5.20;2.70;;;;;;;7.16;100.00;95643.63;1023513;28;20263;-48
2021/05/09 02:11:38;;;;;;;4.88;2.55;;;;;;;7.12;100.00;95635.16;1031440;28;20787;-50
2021/05/09 02:12:09;;;;;;;4.55;2.90;;;;;;;7.12;100.00;95642.16;1023560;29;20027;-46
2021/05/09 02:12:40;;;;;;;3.67;2.42;;;;;;;7.10;100.00;95639.63;1023573;29;20027;-48
2021/05/09 02:13:11;;;;;;;4.05;2.50;;;;;;;7.10;100.00;95641.41;1023550;29;20028;-47
2021/05/09 02:13:42;;;;;;;4.18;2.78;;;;;;;7.04;100.00;95633.97;1023266;29;20024;-49
2021/05/09 02:14:13;;;;;;;4.25;2.85;;;;;;;7.06;100.00;95640.75;1019679;29;20264;-48
2021/05/09 02:14:44;;;;;;;5.22;2.47;;;;;;;7.04;100.00;95639.16;1023636;29;20031;-50
2021/05/09 02:15:15;;;;;;;4.35;2.88;;;;;;;7.07;100.00;95642.44;1027585;28;20269;-49
2021/05/09 02:15:46;;;;;;;4.35;2.47;;;;;;;7.05;100.00;95641.69;1023457;28;20255;-49
2021/05/09 02:16:17;;;;;;;4.45;2.63;;;;;;;7.04;100.00;95641.78;1027494;28;20254;-50
2021/05/09 02:16:48;;;;;;;4.50;2.40;;;;;;;7.01;100.00;95642.81;1023603;29;20638;-49
2021/05/09 02:17:20;;;;;;;4.32;2.40;;;;;;;7.01;100.00;95638.44;1019652;29;20533;-48
2021/05/09 02:17:51;;;;;;;5.32;2.70;;;;;;;7.00;100.00;95641.97;1027417;28;20027;-48
2021/05/09 02:18:21;;;;;;;5.70;2.50;;;;;;;6.96;100.00;95645.72;1031520;28;20342;-49
2021/05/09 02:18:52;;;;;;;4.93;2.33;;;;;;;6.95;100.00;95643.19;1019614;29;20461;-49
2021/05/09 02:19:23;;;;;;;4.47;2.40;;;;;;;6.94;100.00;95641.50;1019540;29;20034;-48
2021/05/09 02:19:55;;;;;;;4.25;2.63;;;;;;;6.93;100.00;95640.69;1023381;28;20031;-48
2021/05/09 02:20:26;;;;;;;7.45;3.05;;;;;;;6.92;100.00;95640.75;1023719;28;20375;-50
2021/05/09 02:20:57;;;;;;;5.07;2.80;;;;;;;6.90;100.00;95647.84;1027458;28;20251;-49
2021/05/09 02:21:28;;;;;;;4.72;2.70;;;;;;;6.91;100.00;95641.72;1031573;28;20116;-48
2021/05/09 02:21:59;;;;;;;4.47;2.80;;;;;;;6.87;100.00;95635.00;1031434;28;20026;-49
2021/05/09 02:22:30;;;;;;;4.20;2.80;;;;;;;6.91;100.00;95644.31;1023576;28;20249;-48
2021/05/09 02:23:01;;;;;;;5.00;2.88;;;;;;;6.90;100.00;95640.84;1031549;28;20257;-48
2021/05/09 02:23:33;;;;;;;5.88;3.28;;;;;;;6.92;100.00;95640.75;1023420;29;20106;-51
2021/05/09 02:24:04;;;;;;;4.15;2.50;;;;;;;6.88;100.00;95632.28;1027350;28;20269;-48
2021/05/09 02:24:35;;;;;;;4.88;2.78;;;;;;;6.94;100.00;95637.13;1027557;28;20284;-49
2021/05/09 02:25:07;;;;;;;6.28;3.30;;;;;;;6.94;100.00;95631.09;1023529;29;20346;-50
2021/05/09 02:25:38;;;;;;;5.45;3.30;;;;;;;6.90;100.00;95634.81;1019644;29;20423;-49
2021/05/09 02:26:09;;;;;;;6.57;3.75;;;;;;;6.91;100.00;95633.91;1023426;28;20251;-47
2021/05/09 02:26:40;;;;;;;7.22;3.40;;;;;;;6.94;100.00;95631.09;1023615;28;20046;-50
2021/05/09 02:27:12;;;;;;;8.75;3.40;;;;;;;6.93;100.00;95640.69;1027486;28;20085;-48
2021/05/09 02:27:43;;;;;;;4.68;3.10;;;;;;;6.89;100.00;95633.13;1027576;28;20711;-49